createdAt,value
2022-09-05T00:00:20.767Z,6.81
2022-09-05T00:02:06.095Z,5.68
2022-09-05T00:03:21.749Z,5.41
2022-09-05T00:04:35.173Z,7.03
2022-09-05T00:06:02.778Z,6.66
2022-09-05T00:07:36.032Z,6.70
2022-09-05T00:08:22.947Z,7.81
2022-09-05T00:09:39.228Z,6.49
2022-09-05T00:11:43.062Z,6.28
2022-09-05T00:12:15.698Z,7.41
2022-09-05T00:13:37.374Z,7.03
2022-09-05T00:15:16.730Z,5.56
2022-09-05T00:16:34.182Z,6.43
2022-09-05T00:18:32.471Z,7.13
2022-09-05T00:24:26.872Z,6.30
2022-09-05T00:24:31.033Z,5.63
2022-09-05T00:26:33.535Z,7.05
2022-09-05T00:27:58.937Z,5.81
2022-09-05T00:29:21.781Z,5.87
2022-09-05T00:31:51.505Z,4.91
2022-09-05T00:32:02.529Z,6.46
2022-09-05T00:33:17.511Z,5.32
2022-09-05T00:34:36.195Z,5.94
2022-09-05T00:35:49.587Z,6.56
2022-09-05T00:36:55.422Z,5.48
2022-09-05T00:38:02.492Z,6.65
2022-09-05T00:39:15.871Z,7.47
2022-09-05T00:40:36.748Z,7.12
2022-09-05T00:41:42.946Z,5.56
2022-09-05T00:42:50.024Z,6.14
2022-09-05T00:44:00.323Z,6.51
2022-09-05T00:45:14.612Z,7.35
2022-09-05T00:46:32.988Z,5.56
2022-09-05T00:47:41.980Z,5.53
2022-09-05T00:48:54.911Z,4.89
2022-09-05T00:51:28.534Z,8.22
2022-09-05T00:52:43.780Z,5.29
2022-09-05T00:54:03.690Z,5.84
2022-09-05T00:55:27.907Z,5.92
2022-09-05T00:56:45.289Z,6.11
2022-09-05T00:58:20.601Z,5.21
2022-09-05T00:59:59.133Z,6.42
2022-09-05T01:01:12.080Z,6.24
2022-09-05T01:02:37.902Z,6.98
2022-09-05T01:03:58.209Z,6.21
2022-09-05T01:05:19.611Z,7.33
2022-09-05T01:06:35.621Z,6.39
2022-09-05T01:09:29.054Z,6.53
2022-09-05T01:11:08.052Z,5.76
2022-09-05T01:12:16.120Z,6.72
2022-09-05T01:13:53.873Z,8.31
2022-09-05T01:15:20.616Z,5.13
2022-09-05T01:17:04.187Z,5.98
2022-09-05T01:18:17.402Z,5.89
2022-09-05T01:19:47.687Z,7.40
2022-09-05T01:20:59.308Z,6.49
2022-09-05T01:23:50.321Z,7.59
2022-09-05T01:25:15.096Z,5.61
2022-09-05T01:29:15.426Z,6.59
2022-09-05T01:29:55.610Z,4.56
2022-09-05T01:31:14.636Z,7.10
2022-09-05T01:32:42.096Z,6.09
2022-09-05T01:33:59.018Z,5.87
2022-09-05T01:35:42.225Z,5.27
2022-09-05T01:37:00.229Z,4.89
2022-09-05T01:38:12.966Z,4.74
2022-09-05T01:40:14.413Z,5.90
2022-09-05T01:41:18.434Z,7.76
2022-09-05T01:42:12.322Z,5.58
2022-09-05T01:43:31.810Z,4.84
2022-09-05T01:45:03.360Z,5.42
2022-09-05T01:46:33.835Z,7.30
2022-09-05T01:47:48.383Z,6.24
2022-09-05T01:49:09.462Z,6.68
2022-09-05T01:50:51.959Z,5.72
2022-09-05T01:52:33.769Z,5.19
2022-09-05T01:55:34.866Z,6.24
2022-09-05T01:56:43.740Z,6.60
2022-09-05T01:58:03.334Z,5.97
2022-09-05T01:59:15.116Z,6.96
2022-09-05T02:00:32.750Z,5.14
2022-09-05T02:01:52.192Z,7.20
2022-09-05T02:02:59.580Z,5.21
2022-09-05T02:04:12.121Z,5.71
2022-09-05T02:05:48.691Z,6.44
2022-09-05T02:06:45.425Z,5.35
2022-09-05T02:08:12.058Z,5.44
2022-09-05T02:09:31.126Z,5.74
2022-09-05T02:10:57.294Z,7.50
2022-09-05T02:12:04.005Z,5.94
2022-09-05T02:13:32.618Z,4.91
2022-09-05T02:14:45.549Z,4.89
2022-09-05T02:15:59.904Z,5.27
2022-09-05T02:17:23.423Z,5.45
2022-09-05T02:18:43.867Z,7.38
2022-09-05T02:19:51.068Z,6.66
2022-09-05T02:21:01.466Z,7.18
2022-09-05T02:22:14.478Z,4.61
2022-09-05T02:23:27.363Z,4.76
2022-09-05T02:24:39.968Z,5.64
2022-09-05T02:26:19.997Z,6.22
2022-09-05T02:28:04.246Z,8.53
2022-09-05T02:28:49.596Z,5.86
2022-09-05T02:30:09.446Z,6.48
2022-09-05T02:31:23.848Z,4.61
2022-09-05T02:33:03.062Z,6.76
2022-09-05T02:34:25.206Z,5.31
2022-09-05T02:35:37.327Z,4.94
2022-09-05T02:36:45.016Z,5.65
2022-09-05T02:40:00.935Z,6.05
2022-09-05T02:45:02.366Z,5.43
2022-09-05T02:45:06.887Z,5.85
2022-09-05T02:45:14.210Z,5.41
2022-09-05T02:45:14.649Z,5.59
2022-09-05T02:45:26.889Z,6.45
2022-09-05T02:48:27.228Z,6.92
2022-09-05T02:52:29.242Z,7.82
2022-09-05T02:57:25.826Z,6.43
2022-09-05T02:57:27.121Z,6.12
2022-09-05T02:57:39.221Z,7.41
2022-09-05T02:57:40.618Z,4.73
2022-09-05T02:58:07.199Z,5.63
2022-09-05T03:03:50.975Z,5.24
2022-09-05T03:05:04.651Z,5.07
2022-09-05T03:06:15.901Z,5.74
2022-09-05T03:07:45.531Z,4.86
2022-09-05T03:09:16.702Z,6.88
2022-09-05T03:10:53.706Z,5.28
2022-09-05T03:12:28.907Z,5.77
2022-09-05T03:13:28.427Z,5.43
2022-09-05T03:14:41.790Z,6.54
2022-09-05T03:16:24.373Z,5.56
2022-09-05T03:17:56.676Z,4.78
2022-09-05T03:19:16.337Z,5.21
2022-09-05T03:20:51.999Z,5.68
2022-09-05T03:22:17.540Z,7.04
2022-09-05T03:23:30.766Z,6.21
2022-09-05T03:25:06.364Z,6.37
2022-09-05T03:26:28.950Z,6.59
2022-09-05T03:28:11.558Z,5.84
2022-09-05T03:29:36.648Z,5.38
2022-09-05T03:31:20.561Z,6.20
2022-09-05T03:32:43.676Z,5.62
2022-09-05T03:34:15.108Z,5.77
2022-09-05T03:35:56.802Z,5.91
2022-09-05T03:37:07.304Z,5.52
2022-09-05T03:38:31.562Z,8.26
2022-09-05T03:40:16.082Z,5.51
2022-09-05T03:41:40.160Z,6.02
2022-09-05T03:43:01.909Z,5.23
2022-09-05T03:44:26.303Z,5.76
2022-09-05T03:45:46.168Z,6.16
2022-09-05T03:47:09.242Z,4.58
2022-09-05T03:48:28.730Z,6.59
2022-09-05T03:52:21.343Z,5.12
2022-09-05T03:57:05.990Z,5.20
2022-09-05T03:57:07.182Z,5.21
2022-09-05T03:57:17.660Z,4.86
2022-09-05T03:57:19.160Z,6.01
2022-09-05T03:57:38.649Z,6.23
2022-09-05T03:58:55.483Z,7.34
2022-09-05T04:00:11.262Z,5.74
2022-09-05T04:03:30.787Z,7.36
2022-09-05T04:05:31.038Z,5.73
2022-09-05T04:08:10.952Z,7.57
2022-09-05T04:08:17.043Z,6.47
2022-09-05T04:08:18.539Z,5.44
2022-09-05T04:08:19.632Z,5.85
2022-09-05T04:08:59.926Z,7.12
2022-09-05T04:10:28.052Z,7.76
2022-09-05T04:11:47.761Z,6.29
2022-09-05T04:12:55.213Z,5.92
2022-09-05T04:14:01.372Z,6.84
2022-09-05T04:15:24.699Z,5.77
2022-09-05T04:16:33.111Z,5.52
2022-09-05T04:17:43.528Z,7.31
2022-09-05T04:19:05.990Z,7.39
2022-09-05T04:20:38.445Z,7.45
2022-09-05T04:23:13.533Z,6.12
2022-09-05T04:24:36.803Z,10.47
2022-09-05T04:26:12.163Z,7.88
2022-09-05T04:27:34.585Z,6.18
2022-09-05T04:29:00.823Z,7.24
2022-09-05T04:30:39.694Z,6.56
2022-09-05T04:32:18.709Z,5.92
2022-09-05T04:33:36.975Z,6.43
2022-09-05T04:34:56.646Z,5.62
2022-09-05T04:36:31.698Z,8.08
2022-09-05T04:38:55.938Z,5.90
2022-09-05T04:40:23.080Z,8.41
2022-09-05T04:41:39.966Z,6.48
2022-09-05T04:42:37.566Z,7.61
2022-09-05T04:43:50.938Z,7.79
2022-09-05T04:45:07.250Z,6.19
2022-09-05T04:46:19.502Z,7.66
2022-09-05T04:47:41.802Z,5.86
2022-09-05T04:49:08.907Z,4.95
2022-09-05T04:50:24.147Z,7.98
2022-09-05T04:51:31.799Z,6.07
2022-09-05T04:53:05.454Z,6.79
2022-09-05T04:54:36.947Z,6.64
2022-09-05T04:55:51.059Z,7.04
2022-09-05T04:56:57.643Z,5.69
2022-09-05T04:58:07.614Z,6.83
2022-09-05T05:01:31.140Z,5.84
2022-09-05T05:06:03.643Z,6.18
2022-09-05T05:06:11.234Z,5.88
2022-09-05T05:06:15.300Z,6.21
2022-09-05T05:06:42.316Z,7.10
2022-09-05T05:07:48.546Z,6.69
2022-09-05T05:09:30.985Z,6.11
2022-09-05T05:13:00.731Z,7.68
2022-09-05T05:17:56.010Z,6.80
2022-09-05T05:18:07.793Z,7.38
2022-09-05T05:18:09.767Z,6.81
2022-09-05T05:18:10.551Z,7.01
2022-09-05T05:18:16.392Z,5.85
2022-09-05T05:18:59.976Z,5.91
2022-09-05T05:21:20.904Z,7.34
2022-09-05T05:22:25.994Z,5.82
2022-09-05T05:23:39.468Z,7.78
2022-09-05T05:24:52.934Z,7.23
2022-09-05T05:25:59.720Z,8.01
2022-09-05T05:27:24.725Z,6.30
2022-09-05T05:28:44.458Z,6.46
2022-09-05T05:30:08.478Z,7.83
2022-09-05T05:31:29.469Z,8.38
2022-09-05T05:32:46.070Z,6.17
2022-09-05T05:33:50.246Z,7.41
2022-09-05T05:35:00.476Z,8.58
2022-09-05T05:36:08.544Z,5.85
2022-09-05T05:37:32.485Z,6.88
2022-09-05T05:38:47.259Z,5.48
2022-09-05T05:41:33.893Z,7.11
2022-09-05T05:42:41.123Z,7.31
2022-09-05T05:43:46.632Z,9.88
2022-09-05T05:44:55.012Z,6.88
2022-09-05T05:46:01.261Z,6.61
2022-09-05T05:48:27.243Z,7.12
2022-09-05T05:49:41.192Z,8.13
2022-09-05T05:50:54.200Z,7.57
2022-09-05T05:52:08.459Z,8.72
2022-09-05T05:53:43.188Z,7.62
2022-09-05T05:55:37.622Z,8.47
2022-09-05T05:56:22.852Z,9.33
2022-09-05T05:58:03.934Z,6.91
2022-09-05T05:59:24.750Z,8.98
2022-09-05T06:00:51.559Z,8.83
2022-09-05T06:02:16.598Z,9.19
2022-09-05T06:05:18.341Z,8.13
2022-09-05T06:06:43.455Z,9.55
2022-09-05T06:10:53.897Z,8.04
2022-09-05T06:14:50.873Z,8.33
2022-09-05T06:14:51.011Z,10.64
2022-09-05T06:14:57.481Z,9.00
2022-09-05T06:15:05.412Z,8.27
2022-09-05T06:15:27.724Z,9.74
2022-09-05T06:17:12.175Z,8.92
2022-09-05T06:18:45.881Z,9.59
2022-09-05T06:22:07.671Z,11.81
2022-09-05T06:24:28.289Z,10.42
2022-09-05T06:25:56.274Z,12.63
2022-09-05T06:27:22.981Z,13.27
2022-09-05T06:30:21.360Z,12.36
2022-09-05T06:31:43.098Z,13.43
2022-09-05T06:33:12.828Z,12.25
2022-09-05T06:36:10.605Z,12.18
2022-09-05T06:37:34.400Z,10.42
2022-09-05T06:39:00.387Z,10.91
2022-09-05T06:40:20.509Z,12.05
2022-09-05T06:41:52.915Z,12.58
2022-09-05T06:43:19.108Z,14.41
2022-09-05T06:44:54.513Z,12.96
2022-09-05T06:47:22.856Z,11.11
2022-09-05T06:47:36.732Z,12.57
2022-09-05T06:49:30.033Z,12.37
2022-09-05T06:50:21.731Z,11.56
2022-09-05T06:51:31.687Z,12.47
2022-09-05T06:52:59.158Z,11.56
2022-09-05T06:54:27.630Z,12.67
2022-09-05T06:55:44.122Z,9.29
2022-09-05T06:58:51.188Z,11.30
2022-09-05T07:00:22.504Z,19.47
2022-09-05T07:01:53.851Z,27.46
2022-09-05T07:02:58.921Z,27.64
2022-09-05T07:04:33.185Z,27.47
2022-09-05T07:05:39.849Z,31.23
2022-09-05T07:07:06.460Z,32.38
2022-09-05T07:08:35.825Z,39.27
2022-09-05T07:11:11.410Z,53.96
2022-09-05T07:12:16.276Z,62.13
2022-09-05T07:13:44.647Z,68.86
2022-09-05T07:15:11.458Z,88.19
2022-09-05T07:16:26.528Z,87.84
2022-09-05T07:18:09.710Z,107.45
2022-09-05T07:19:03.342Z,120.51
2022-09-05T07:20:30.705Z,126.26
2022-09-05T07:21:46.953Z,150.71
2022-09-05T07:22:55.192Z,154.52
2022-09-05T07:24:11.146Z,153.44
2022-09-05T07:25:21.071Z,148.44
2022-09-05T07:26:49.711Z,140.58
2022-09-05T07:27:41.986Z,142.63
2022-09-05T07:28:46.359Z,141.54
2022-09-05T07:30:00.955Z,141.42
2022-09-05T07:31:04.290Z,150.26
2022-09-05T07:32:10.697Z,146.14
2022-09-05T07:33:21.015Z,156.18
2022-09-05T07:34:35.418Z,149.23
2022-09-05T07:35:42.714Z,150.54
2022-09-05T07:36:48.516Z,139.61
2022-09-05T07:38:11.035Z,137.54
2022-09-05T07:39:28.869Z,128.93
2022-09-05T07:40:30.886Z,128.09
2022-09-05T07:41:40.911Z,128.10
2022-09-05T07:43:10.096Z,122.90
2022-09-05T07:44:18.831Z,119.98
2022-09-05T07:45:29.106Z,123.98
2022-09-05T07:46:36.284Z,125.21
2022-09-05T07:47:43.591Z,117.33
2022-09-05T07:48:50.925Z,117.22
2022-09-05T07:52:23.517Z,118.82
2022-09-05T07:55:59.239Z,122.71
2022-09-05T07:56:47.671Z,118.59
2022-09-05T07:56:55.562Z,118.44
2022-09-05T07:57:02.365Z,126.97
2022-09-05T07:57:08.981Z,125.29
2022-09-05T07:57:30.361Z,128.87
2022-09-05T07:58:15.328Z,121.77
2022-09-05T07:59:24.740Z,120.04
2022-09-05T08:00:32.061Z,120.83
2022-09-05T08:01:39.847Z,116.74
2022-09-05T08:02:50.235Z,121.16
2022-09-05T08:04:00.363Z,125.02
2022-09-05T08:05:05.737Z,116.67
2022-09-05T08:06:15.648Z,110.62
2022-09-05T08:07:46.737Z,119.83
2022-09-05T08:09:18.634Z,109.83
2022-09-05T08:10:08.064Z,102.91
2022-09-05T08:11:24.204Z,85.64
2022-09-05T08:12:28.341Z,91.86
2022-09-05T08:13:46.586Z,101.90
2022-09-05T08:14:57.214Z,100.36
2022-09-05T08:36:00.787Z,83.24
2022-09-05T08:37:03.097Z,79.04
2022-09-05T08:38:09.006Z,83.87
2022-09-05T08:39:22.620Z,79.64
2022-09-05T08:40:35.980Z,82.58
2022-09-05T08:42:05.970Z,83.83
2022-09-05T08:46:32.170Z,83.47
2022-09-05T08:46:40.509Z,77.62
2022-09-05T08:46:47.281Z,83.72
2022-09-05T08:48:10.368Z,81.18
2022-09-05T08:51:01.172Z,78.01
2022-09-05T08:52:11.642Z,77.11
2022-09-05T08:53:52.245Z,77.08
2022-09-05T08:55:07.121Z,80.02
2022-09-05T08:56:23.081Z,82.47
2022-09-05T08:58:04.372Z,75.47
2022-09-05T08:59:27.635Z,78.99
2022-09-05T09:00:24.448Z,78.43
2022-09-05T09:02:13.780Z,75.39
2022-09-05T09:03:05.008Z,79.33
2022-09-05T09:04:41.690Z,71.65
2022-09-05T09:06:13.542Z,73.92
2022-09-05T09:07:47.224Z,72.44
2022-09-05T09:08:56.459Z,72.14
2022-09-05T09:10:25.767Z,70.27
2022-09-05T09:11:42.135Z,75.36
2022-09-05T09:12:55.327Z,70.29
2022-09-05T09:14:31.116Z,71.06
2022-09-05T09:16:16.289Z,67.68
2022-09-05T09:17:43.813Z,66.67
2022-09-05T09:18:54.122Z,66.43
2022-09-05T09:20:10.235Z,62.41
2022-09-05T09:21:35.899Z,64.73
2022-09-05T09:22:50.491Z,55.33
2022-09-05T09:24:00.630Z,57.41
2022-09-05T09:25:15.392Z,57.82
2022-09-05T09:26:25.444Z,58.22
2022-09-05T09:28:40.774Z,54.64
2022-09-05T09:29:06.940Z,57.51
2022-09-05T09:30:14.392Z,58.59
2022-09-05T09:31:39.333Z,53.01
2022-09-05T09:32:49.011Z,55.56
2022-09-05T09:34:23.766Z,47.80
2022-09-05T09:35:48.134Z,49.38
2022-09-05T09:37:31.965Z,47.02
2022-09-05T09:38:49.396Z,45.99
2022-09-05T09:40:23.271Z,40.87
2022-09-05T09:41:52.897Z,40.43
2022-09-05T09:43:10.417Z,42.22
2022-09-05T09:44:53.435Z,33.76
2022-09-05T09:46:10.922Z,32.58
2022-09-05T09:47:17.855Z,27.92
2022-09-05T09:48:36.637Z,31.37
2022-09-05T09:49:54.562Z,32.78
2022-09-05T09:51:19.056Z,31.57
2022-09-05T09:52:50.316Z,28.81
2022-09-05T09:54:03.937Z,26.17
2022-09-05T10:21:44.213Z,15.46
2022-09-05T10:23:15.179Z,16.03
2022-09-05T10:24:52.518Z,15.49
2022-09-05T10:26:27.589Z,13.43
2022-09-05T10:27:53.709Z,12.77
2022-09-05T10:29:35.237Z,14.02
2022-09-05T10:30:41.869Z,11.79
2022-09-05T10:33:16.956Z,9.78
2022-09-05T10:35:09.320Z,10.63
2022-09-05T10:35:16.837Z,11.38
2022-09-05T10:35:44.508Z,11.97
2022-09-05T10:37:05.153Z,8.96
2022-09-05T10:38:21.712Z,5.80
2022-09-05T10:39:31.689Z,5.88
2022-09-05T10:41:11.043Z,5.91
2022-09-05T10:41:51.038Z,6.12
2022-09-05T10:43:03.228Z,8.91
2022-09-05T10:44:12.427Z,4.17
2022-09-05T10:46:51.348Z,2.98
2022-09-05T10:48:14.261Z,4.12
2022-09-05T10:50:37.039Z,4.18
2022-09-05T10:51:53.188Z,5.06
2022-09-05T10:53:38.906Z,7.20
2022-09-05T10:54:38.599Z,5.40
2022-09-05T10:56:01.578Z,4.06
2022-09-05T10:57:20.911Z,3.52
2022-09-05T11:02:16.445Z,5.73
2022-09-05T11:02:19.266Z,6.10
2022-09-05T11:02:27.375Z,7.98
2022-09-05T11:02:49.095Z,8.21
2022-09-05T11:04:11.340Z,8.43
2022-09-05T11:05:27.871Z,9.61
2022-09-05T11:06:38.940Z,10.62
2022-09-05T11:08:07.262Z,7.89
2022-09-05T11:09:21.611Z,12.46
2022-09-05T11:10:40.469Z,10.79
2022-09-05T11:11:50.759Z,7.03
2022-09-05T11:13:06.623Z,8.44
2022-09-05T11:14:32.182Z,6.79
2022-09-05T11:16:04.355Z,6.98
2022-09-05T11:17:22.304Z,5.76
2022-09-05T11:18:56.458Z,9.09
2022-09-05T11:19:55.856Z,6.70
2022-09-05T11:22:29.399Z,5.67
2022-09-05T11:23:52.966Z,5.56
2022-09-05T11:25:02.335Z,6.63
2022-09-05T11:26:35.115Z,5.12
2022-09-05T11:27:44.696Z,5.21
2022-09-05T11:28:59.851Z,5.29
2022-09-05T11:30:09.051Z,5.54
2022-09-05T11:31:21.669Z,5.18
2022-09-05T11:37:52.256Z,4.14
2022-09-05T11:39:45.768Z,3.84
2022-09-05T11:39:48.206Z,4.63
2022-09-05T11:39:56.731Z,4.19
2022-09-05T11:40:26.341Z,5.06
2022-09-05T11:41:23.843Z,3.94
2022-09-05T11:42:52.023Z,4.14
2022-09-05T11:44:25.130Z,2.99
2022-09-05T11:45:42.766Z,4.30
2022-09-05T11:47:28.052Z,3.62
2022-09-05T11:48:55.447Z,4.81
2022-09-05T11:50:19.621Z,3.02
2022-09-05T11:51:49.004Z,3.19
2022-09-05T11:53:05.993Z,2.79
2022-09-05T11:54:13.681Z,3.15
2022-09-05T11:55:56.035Z,3.70
2022-09-05T11:57:31.894Z,2.12
2022-09-05T11:58:44.858Z,2.25
2022-09-05T12:00:31.301Z,2.76
2022-09-05T12:01:41.037Z,5.33
2022-09-05T12:02:45.005Z,3.49
2022-09-05T12:04:13.789Z,2.93
2022-09-05T12:05:48.966Z,2.57
2022-09-05T12:07:26.259Z,2.89
2022-09-05T12:08:32.928Z,2.44
2022-09-05T12:09:53.450Z,3.73
2022-09-05T12:11:11.005Z,2.17
2022-09-05T12:12:39.018Z,5.50
2022-09-05T12:13:39.999Z,3.76
2022-09-05T12:15:16.607Z,4.23
2022-09-05T12:16:41.951Z,3.54
2022-09-05T12:17:48.378Z,3.00
2022-09-05T12:19:18.982Z,2.58
2022-09-05T12:20:22.133Z,2.38
2022-09-05T12:21:35.637Z,3.38
2022-09-05T12:22:57.466Z,4.10
2022-09-05T12:25:24.198Z,2.61
2022-09-05T12:27:41.872Z,3.23
2022-09-05T12:27:42.551Z,2.12
2022-09-05T12:27:58.572Z,2.07
2022-09-05T12:29:32.607Z,2.22
2022-09-05T12:30:28.791Z,2.14
2022-09-05T12:32:37.720Z,4.74
2022-09-05T12:36:01.834Z,2.14
2022-09-05T12:36:04.240Z,2.54
2022-09-05T12:36:09.888Z,2.64
2022-09-05T12:40:28.688Z,2.20
2022-09-05T12:40:56.293Z,2.79
2022-09-05T12:40:56.296Z,3.09
2022-09-05T12:41:36.785Z,3.81
2022-09-05T12:42:11.335Z,3.21
2022-09-05T12:44:37.493Z,3.12
2022-09-05T12:44:39.478Z,4.12
2022-09-05T12:45:58.536Z,4.63
2022-09-05T12:47:18.835Z,3.11
2022-09-05T12:48:16.079Z,3.78
2022-09-05T12:49:47.275Z,3.98
2022-09-05T12:50:58.984Z,4.93
2022-09-05T12:52:09.217Z,5.87
2022-09-05T12:53:21.843Z,5.82
2022-09-05T12:54:33.346Z,4.70
2022-09-05T12:55:46.988Z,7.64
2022-09-05T13:02:02.811Z,4.75
2022-09-05T13:02:59.071Z,4.92
2022-09-05T13:03:01.530Z,5.69
2022-09-05T13:03:07.415Z,6.89
2022-09-05T13:03:14.118Z,6.13
2022-09-05T13:03:30.058Z,7.46
2022-09-05T13:04:47.339Z,5.38
2022-09-05T13:05:52.989Z,6.08
2022-09-05T13:07:10.481Z,4.78
2022-09-05T13:08:22.735Z,5.17
2022-09-05T13:10:39.443Z,3.97
2022-09-05T13:14:28.991Z,5.25
2022-09-05T13:14:50.100Z,3.97
2022-09-05T13:14:53.363Z,6.46
2022-09-05T13:14:59.360Z,5.74
2022-09-05T13:15:27.953Z,6.63
2022-09-05T13:16:35.083Z,5.52
2022-09-05T13:17:44.432Z,4.99
2022-09-05T13:18:50.928Z,5.79
2022-09-05T13:19:56.292Z,5.13
2022-09-05T13:21:14.023Z,5.89
2022-09-05T13:22:21.660Z,6.18
2022-09-05T13:23:40.974Z,6.31
2022-09-05T13:24:50.027Z,6.59
2022-09-05T13:26:02.407Z,6.24
2022-09-05T13:27:18.288Z,6.52
2022-09-05T13:28:25.148Z,6.59
2022-09-05T13:29:38.554Z,7.97
2022-09-05T13:37:54.634Z,6.99
2022-09-05T13:37:59.938Z,6.84
2022-09-05T13:38:02.724Z,6.97
2022-09-05T13:38:15.038Z,6.69
2022-09-05T13:38:21.304Z,6.73
2022-09-05T13:38:28.838Z,7.27
2022-09-05T13:38:47.507Z,6.10
2022-09-05T13:39:29.767Z,5.66
2022-09-05T13:40:49.707Z,7.41
2022-09-05T13:41:57.437Z,5.48
2022-09-05T13:43:14.887Z,6.74
2022-09-05T13:44:26.354Z,6.38
2022-09-05T13:45:30.446Z,5.93
2022-09-05T13:46:39.459Z,6.30
2022-09-05T13:48:01.312Z,5.56
2022-09-05T13:49:26.507Z,6.92
2022-09-05T13:50:42.075Z,5.85
2022-09-05T13:51:50.583Z,6.59
2022-09-05T13:52:59.931Z,7.24
2022-09-05T13:54:16.677Z,8.73
2022-09-05T13:56:39.034Z,5.88
2022-09-05T13:57:54.693Z,7.06
2022-09-05T13:59:11.137Z,5.93
2022-09-05T14:00:28.737Z,5.77
2022-09-05T14:01:36.424Z,5.86
2022-09-05T14:05:06.006Z,6.98
2022-09-05T14:06:47.057Z,6.03
2022-09-05T14:07:46.337Z,8.89
2022-09-05T14:10:34.574Z,10.41
2022-09-05T14:12:15.007Z,10.75
2022-09-05T14:13:36.626Z,8.27
2022-09-05T14:15:59.056Z,11.64
2022-09-05T14:18:44.265Z,15.66
2022-09-05T14:20:10.917Z,11.08
2022-09-05T14:21:16.893Z,16.32
2022-09-05T14:22:44.178Z,12.81
2022-09-05T14:24:03.167Z,12.97
2022-09-05T14:25:27.041Z,13.63
2022-09-05T14:26:43.952Z,12.10
2022-09-05T14:27:51.288Z,12.57
2022-09-05T14:29:19.695Z,13.32
2022-09-05T14:33:32.507Z,12.83
2022-09-05T14:37:34.844Z,10.08
2022-09-05T14:37:43.765Z,9.82
2022-09-05T14:37:48.705Z,10.05
2022-09-05T14:37:53.547Z,8.93
2022-09-05T14:38:01.085Z,10.13
2022-09-05T14:38:57.862Z,7.86
2022-09-05T14:40:33.036Z,8.06
2022-09-05T14:41:43.218Z,7.17
2022-09-05T14:43:07.389Z,7.54
2022-09-05T14:44:41.676Z,7.10
2022-09-05T14:46:04.236Z,9.22
2022-09-05T14:47:38.603Z,6.66
2022-09-05T14:49:00.850Z,6.98
2022-09-05T14:50:17.955Z,8.41
2022-09-05T14:51:26.530Z,7.02
2022-09-05T14:52:35.498Z,5.57
2022-09-05T14:54:06.190Z,6.75
2022-09-05T15:02:47.896Z,6.18
2022-09-05T15:02:50.437Z,8.08
2022-09-05T15:02:53.944Z,6.43
2022-09-05T15:02:56.876Z,6.00
2022-09-05T15:05:03.137Z,9.58
2022-09-05T15:06:28.107Z,8.91
2022-09-05T15:07:37.789Z,9.43
2022-09-05T15:11:15.224Z,10.07
2022-09-05T15:12:15.016Z,9.26
2022-09-05T15:12:16.832Z,9.15
2022-09-05T15:12:31.343Z,7.64
2022-09-05T15:13:25.780Z,6.82
2022-09-05T15:14:33.258Z,8.20
2022-09-05T15:16:02.901Z,7.08
2022-09-05T15:17:10.549Z,7.72
2022-09-05T15:20:06.375Z,7.51
2022-09-05T15:21:34.534Z,7.09
2022-09-05T15:22:43.242Z,8.08
2022-09-05T15:25:25.497Z,9.89
2022-09-05T15:26:33.006Z,9.17
2022-09-05T15:27:37.057Z,7.69
2022-09-05T15:28:46.586Z,8.47
2022-09-05T15:29:55.247Z,8.24
2022-09-05T15:31:06.149Z,6.79
2022-09-05T15:32:23.620Z,7.01
2022-09-05T15:33:30.636Z,8.58
2022-09-05T15:34:38.507Z,8.54
2022-09-05T15:35:47.409Z,6.61
2022-09-05T15:37:09.282Z,6.42
2022-09-05T15:38:06.261Z,7.72
2022-09-05T15:39:29.168Z,7.63
2022-09-05T15:40:33.161Z,6.27
2022-09-05T15:41:43.382Z,7.12
2022-09-05T15:42:59.362Z,8.49
2022-09-05T15:44:09.687Z,7.91
2022-09-05T15:45:15.516Z,6.64
2022-09-05T15:46:51.012Z,8.08
2022-09-05T15:48:16.813Z,9.51
2022-09-05T15:49:43.788Z,8.07
2022-09-05T15:50:50.645Z,10.68
2022-09-05T15:53:15.647Z,8.16
2022-09-05T15:54:38.335Z,9.66
2022-09-05T15:55:58.251Z,8.63
2022-09-05T15:57:02.586Z,10.96
2022-09-05T15:58:11.470Z,9.53
2022-09-05T15:59:21.810Z,9.07
2022-09-05T16:00:37.205Z,9.06
2022-09-05T16:01:58.412Z,9.49
2022-09-05T16:03:05.320Z,10.54
2022-09-05T16:06:25.293Z,7.60
2022-09-05T16:10:36.681Z,12.57
2022-09-05T16:10:41.283Z,7.92
2022-09-05T16:10:45.158Z,7.74
2022-09-05T16:10:50.569Z,9.97
2022-09-05T16:13:08.337Z,6.56
2022-09-05T16:14:39.617Z,6.91
2022-09-05T16:20:31.631Z,6.50
2022-09-05T16:23:12.738Z,7.12
2022-09-05T16:23:13.513Z,5.33
2022-09-05T16:23:23.592Z,5.02
2022-09-05T16:23:26.985Z,5.56
2022-09-05T16:24:58.073Z,5.01
2022-09-05T16:25:52.444Z,3.78
2022-09-05T16:27:02.678Z,3.93
2022-09-05T16:28:17.268Z,4.78
2022-09-05T16:29:26.640Z,3.77
2022-09-05T16:30:33.766Z,4.28
2022-09-05T16:31:41.832Z,3.86
2022-09-05T16:32:51.457Z,4.14
2022-09-05T16:33:55.763Z,4.75
2022-09-05T16:35:10.406Z,4.37
2022-09-05T16:36:18.194Z,3.46
2022-09-05T16:37:42.546Z,4.46
2022-09-05T16:38:53.042Z,3.37
2022-09-05T16:40:03.094Z,3.92
2022-09-05T16:42:46.615Z,3.22
2022-09-05T16:43:57.702Z,3.64
2022-09-05T16:45:06.183Z,4.41
2022-09-05T16:46:33.222Z,3.29
2022-09-05T16:47:40.632Z,4.43
2022-09-05T16:49:05.769Z,4.53
2022-09-05T16:50:34.129Z,4.02
2022-09-05T16:51:40.433Z,4.22
2022-09-05T16:52:56.121Z,4.44
2022-09-05T16:55:49.002Z,4.30
2022-09-05T16:57:02.634Z,5.51
2022-09-05T16:58:18.944Z,4.78
2022-09-05T16:59:28.566Z,4.75
2022-09-05T17:00:42.990Z,3.77
2022-09-05T17:02:12.666Z,4.02
2022-09-05T17:03:29.296Z,4.59
2022-09-05T17:05:03.312Z,5.21
2022-09-05T17:06:03.685Z,5.76
2022-09-05T17:08:44.401Z,5.55
2022-09-05T17:09:51.714Z,4.07
2022-09-05T17:11:12.149Z,4.66
2022-09-05T17:12:21.949Z,5.84
2022-09-05T17:13:46.531Z,5.11
2022-09-05T17:14:54.841Z,5.22
2022-09-05T17:16:00.607Z,5.18
2022-09-05T17:17:36.488Z,4.12
2022-09-05T17:18:26.956Z,3.77
2022-09-05T17:19:37.500Z,3.82
2022-09-05T17:20:43.035Z,3.87
2022-09-05T17:27:19.895Z,4.57
2022-09-05T17:29:07.319Z,3.86
2022-09-05T17:29:28.587Z,6.02
2022-09-05T17:29:31.263Z,4.26
2022-09-05T17:29:33.141Z,3.63
2022-09-05T17:32:19.006Z,3.76
2022-09-05T17:33:43.414Z,3.16
2022-09-05T17:34:58.789Z,3.03
2022-09-05T17:36:08.099Z,4.97
2022-09-05T17:37:42.427Z,3.83
2022-09-05T17:39:09.426Z,3.63
2022-09-05T17:40:41.338Z,2.95
2022-09-05T17:43:01.555Z,4.09
2022-09-05T17:44:16.859Z,3.88
2022-09-05T17:45:35.781Z,3.13
2022-09-05T17:46:54.552Z,3.03
2022-09-05T17:49:19.676Z,2.42
2022-09-05T17:51:51.103Z,2.77
2022-09-05T17:53:00.163Z,2.94
2022-09-05T17:54:11.461Z,3.48
2022-09-05T17:55:19.858Z,3.41
2022-09-05T17:56:41.730Z,3.14
2022-09-05T17:57:48.757Z,2.91
2022-09-05T17:59:16.539Z,3.13
2022-09-05T18:00:49.121Z,3.22
2022-09-05T18:02:16.486Z,3.65
2022-09-05T18:05:06.442Z,4.91
2022-09-05T18:06:22.153Z,6.15
2022-09-05T18:07:30.061Z,5.99
2022-09-05T18:11:28.360Z,4.79
2022-09-05T18:13:13.348Z,3.19
2022-09-05T18:14:01.756Z,6.37
2022-09-05T18:15:09.846Z,4.21
2022-09-05T18:16:14.401Z,3.59
2022-09-05T18:17:38.682Z,5.87
2022-09-05T18:19:57.757Z,3.73
2022-09-05T18:22:30.727Z,3.32
2022-09-05T18:24:47.731Z,3.51
2022-09-05T18:26:04.557Z,2.73
2022-09-05T18:28:03.702Z,3.17
2022-09-05T18:29:08.204Z,3.14
2022-09-05T18:33:55.223Z,2.61
2022-09-05T18:34:29.004Z,3.04
2022-09-05T18:35:38.707Z,3.30
2022-09-05T18:36:51.169Z,5.26
2022-09-05T18:38:01.146Z,4.04
2022-09-05T18:39:29.794Z,4.28
2022-09-05T18:40:49.676Z,2.64
2022-09-05T18:42:26.568Z,3.69
2022-09-05T18:45:15.331Z,3.08
2022-09-05T18:46:21.786Z,2.42
2022-09-05T18:47:32.987Z,2.19
2022-09-05T18:49:57.565Z,3.27
2022-09-05T18:50:23.284Z,3.62
2022-09-05T18:51:15.092Z,2.73
2022-09-05T18:52:23.308Z,3.35
2022-09-05T18:53:33.963Z,3.69
2022-09-05T18:54:41.370Z,2.12
2022-09-05T18:56:13.520Z,3.31
2022-09-05T18:57:26.602Z,2.22
2022-09-05T18:58:27.959Z,2.10
2022-09-05T18:59:40.434Z,2.94
2022-09-05T19:00:50.805Z,4.34
2022-09-05T19:01:58.566Z,3.15
2022-09-05T19:03:10.004Z,1.81
2022-09-05T19:04:40.335Z,2.63
2022-09-05T19:05:37.818Z,2.33
2022-09-05T19:06:45.498Z,2.41
2022-09-05T19:07:59.474Z,2.41
2022-09-05T19:09:04.982Z,2.07
2022-09-05T19:10:35.622Z,2.32
2022-09-05T19:11:28.073Z,2.12
2022-09-05T19:12:42.028Z,2.33
2022-09-05T19:13:44.232Z,2.89
2022-09-05T19:14:57.594Z,2.24
2022-09-05T19:16:43.993Z,3.27
2022-09-05T19:17:19.573Z,3.42
2022-09-05T19:18:26.914Z,1.59
2022-09-05T19:19:30.925Z,2.23
2022-09-05T19:20:57.700Z,4.20
2022-09-05T19:23:02.681Z,3.10
2022-09-05T19:23:16.760Z,4.41
2022-09-05T19:24:24.769Z,2.92
2022-09-05T19:25:35.043Z,4.18
2022-09-05T19:26:40.046Z,3.31
2022-09-05T19:36:46.140Z,3.67
2022-09-05T19:36:49.567Z,3.62
2022-09-05T19:36:51.165Z,2.69